sensor_id;sensor_type;location;lat;lon;timestamp;temperature;humidity
54272;DHT22;40184;53.362;5.216;2022-07-21T00:02:17;21.00;99.90
54272;DHT22;40184;53.362;5.216;2022-07-21T00:04:43;21.10;99.90
54272;DHT22;40184;53.362;5.216;2022-07-21T00:07:08;21.40;99.90
54272;DHT22;40184;53.362;5.216;2022-07-21T00:09:34;21.40;99.90
54272;DHT22;40184;53.362;5.216;2022-07-21T00:12:02;21.20;99.90
54272;DHT22;40184;53.362;5.216;2022-07-21T00:14:28;21.10;99.90
54272;DHT22;40184;53.362;5.216;2022-07-21T00:16:53;21.10;99.90
54272;DHT22;40184;53.362;5.216;2022-07-21T00:19:19;21.10;99.90
54272;DHT22;40184;53.362;5.216;2022-07-21T00:21:45;21.50;99.90
54272;DHT22;40184;53.362;5.216;2022-07-21T00:24:11;21.10;99.90
54272;DHT22;40184;53.362;5.216;2022-07-21T00:26:36;21.50;99.90
54272;DHT22;40184;53.362;5.216;2022-07-21T00:29:02;21.50;99.90
54272;DHT22;40184;53.362;5.216;2022-07-21T00:31:28;21.10;99.90
54272;DHT22;40184;53.362;5.216;2022-07-21T00:33:54;21.50;99.90
54272;DHT22;40184;53.362;5.216;2022-07-21T00:36:20;21.10;99.90
54272;DHT22;40184;53.362;5.216;2022-07-21T00:38:46;21.30;99.90
54272;DHT22;40184;53.362;5.216;2022-07-21T00:41:12;21.40;99.90
54272;DHT22;40184;53.362;5.216;2022-07-21T00:43:38;21.30;99.90
54272;DHT22;40184;53.362;5.216;2022-07-21T00:46:03;21.40;99.90
54272;DHT22;40184;53.362;5.216;2022-07-21T00:48:29;21.00;99.90
54272;DHT22;40184;53.362;5.216;2022-07-21T00:50:55;21.30;99.90
54272;DHT22;40184;53.362;5.216;2022-07-21T00:53:20;21.40;99.90
54272;DHT22;40184;53.362;5.216;2022-07-21T00:55:46;21.40;99.90
54272;DHT22;40184;53.362;5.216;2022-07-21T00:58:12;21.30;99.90
54272;DHT22;40184;53.362;5.216;2022-07-21T01:00:39;21.10;99.90
54272;DHT22;40184;53.362;5.216;2022-07-21T01:03:05;21.00;99.90
54272;DHT22;40184;53.362;5.216;2022-07-21T01:05:32;21.30;99.90
54272;DHT22;40184;53.362;5.216;2022-07-21T01:07:58;21.30;99.90
54272;DHT22;40184;53.362;5.216;2022-07-21T01:10:29;21.30;99.90
54272;DHT22;40184;53.362;5.216;2022-07-21T01:12:56;21.30;99.90
54272;DHT22;40184;53.362;5.216;2022-07-21T01:15:22;21.20;99.90
54272;DHT22;40184;53.362;5.216;2022-07-21T01:17:49;21.00;99.90
54272;DHT22;40184;53.362;5.216;2022-07-21T01:20:18;21.20;99.90
54272;DHT22;40184;53.362;5.216;2022-07-21T01:22:46;21.00;99.90
54272;DHT22;40184;53.362;5.216;2022-07-21T01:25:12;21.10;99.90
54272;DHT22;40184;53.362;5.216;2022-07-21T01:27:38;21.10;99.90
54272;DHT22;40184;53.362;5.216;2022-07-21T01:30:07;20.70;99.90
54272;DHT22;40184;53.362;5.216;2022-07-21T01:32:35;20.70;99.90
54272;DHT22;40184;53.362;5.216;2022-07-21T01:35:01;21.10;99.90
54272;DHT22;40184;53.362;5.216;2022-07-21T01:37:28;21.10;99.90
54272;DHT22;40184;53.362;5.216;2022-07-21T01:39:55;20.70;99.90
54272;DHT22;40184;53.362;5.216;2022-07-21T01:42:40;20.80;99.90
54272;DHT22;40184;53.362;5.216;2022-07-21T01:45:06;21.10;99.90
54272;DHT22;40184;53.362;5.216;2022-07-21T01:47:33;20.70;99.90
54272;DHT22;40184;53.362;5.216;2022-07-21T01:49:58;20.70;99.90
54272;DHT22;40184;53.362;5.216;2022-07-21T01:52:24;20.80;99.90
54272;DHT22;40184;53.362;5.216;2022-07-21T01:54:50;20.90;99.90
54272;DHT22;40184;53.362;5.216;2022-07-21T01:57:16;20.90;99.90
54272;DHT22;40184;53.362;5.216;2022-07-21T01:59:41;21.00;99.90
54272;DHT22;40184;53.362;5.216;2022-07-21T02:02:07;20.80;99.90
54272;DHT22;40184;53.362;5.216;2022-07-21T02:04:33;21.20;99.90
54272;DHT22;40184;53.362;5.216;2022-07-21T02:07:00;21.20;99.90
54272;DHT22;40184;53.362;5.216;2022-07-21T02:09:27;20.70;99.90
54272;DHT22;40184;53.362;5.216;2022-07-21T02:11:52;21.10;99.90
54272;DHT22;40184;53.362;5.216;2022-07-21T02:14:18;21.00;99.90
54272;DHT22;40184;53.362;5.216;2022-07-21T02:16:44;20.70;99.90
54272;DHT22;40184;53.362;5.216;2022-07-21T02:19:10;20.70;99.90
54272;DHT22;40184;53.362;5.216;2022-07-21T02:21:35;20.80;99.90
54272;DHT22;40184;53.362;5.216;2022-07-21T02:24:01;21.10;99.90
54272;DHT22;40184;53.362;5.216;2022-07-21T02:26:27;21.00;99.90
54272;DHT22;40184;53.362;5.216;2022-07-21T02:28:53;21.10;99.90
54272;DHT22;40184;53.362;5.216;2022-07-21T02:31:19;20.50;99.90
54272;DHT22;40184;53.362;5.216;2022-07-21T02:33:44;20.60;99.90
54272;DHT22;40184;53.362;5.216;2022-07-21T02:36:10;20.50;99.90
54272;DHT22;40184;53.362;5.216;2022-07-21T02:38:36;20.90;99.90
54272;DHT22;40184;53.362;5.216;2022-07-21T02:41:01;20.80;99.90
54272;DHT22;40184;53.362;5.216;2022-07-21T02:43:27;20.60;99.90
54272;DHT22;40184;53.362;5.216;2022-07-21T02:45:53;20.80;99.90
54272;DHT22;40184;53.362;5.216;2022-07-21T02:48:19;20.60;99.90
54272;DHT22;40184;53.362;5.216;2022-07-21T02:50:45;20.70;99.90
54272;DHT22;40184;53.362;5.216;2022-07-21T02:53:16;20.50;99.90
54272;DHT22;40184;53.362;5.216;2022-07-21T02:55:49;20.60;99.90
54272;DHT22;40184;53.362;5.216;2022-07-21T02:58:21;20.10;99.90
54272;DHT22;40184;53.362;5.216;2022-07-21T03:00:58;20.50;99.90
54272;DHT22;40184;53.362;5.216;2022-07-21T03:03:28;20.30;99.90
54272;DHT22;40184;53.362;5.216;2022-07-21T03:05:54;20.20;99.90
54272;DHT22;40184;53.362;5.216;2022-07-21T03:08:20;20.20;99.90
54272;DHT22;40184;53.362;5.216;2022-07-21T03:10:46;20.10;99.90
54272;DHT22;40184;53.362;5.216;2022-07-21T03:13:12;20.20;99.90
54272;DHT22;40184;53.362;5.216;2022-07-21T03:15:38;20.10;99.90
54272;DHT22;40184;53.362;5.216;2022-07-21T03:18:04;20.00;99.90
54272;DHT22;40184;53.362;5.216;2022-07-21T03:20:33;20.00;99.90
54272;DHT22;40184;53.362;5.216;2022-07-21T03:23:00;20.40;99.90
54272;DHT22;40184;53.362;5.216;2022-07-21T03:25:26;19.90;99.90
54272;DHT22;40184;53.362;5.216;2022-07-21T03:27:52;20.00;99.90
54272;DHT22;40184;53.362;5.216;2022-07-21T03:30:18;20.00;99.90
54272;DHT22;40184;53.362;5.216;2022-07-21T03:32:44;19.80;99.90
54272;DHT22;40184;53.362;5.216;2022-07-21T03:35:11;19.80;99.90
54272;DHT22;40184;53.362;5.216;2022-07-21T03:38:02;19.90;99.90
54272;DHT22;40184;53.362;5.216;2022-07-21T03:40:30;19.80;99.90
54272;DHT22;40184;53.362;5.216;2022-07-21T03:42:59;20.20;99.90
54272;DHT22;40184;53.362;5.216;2022-07-21T03:45:26;20.20;99.90
54272;DHT22;40184;53.362;5.216;2022-07-21T03:47:55;19.70;99.90
54272;DHT22;40184;53.362;5.216;2022-07-21T03:50:21;20.20;99.90
54272;DHT22;40184;53.362;5.216;2022-07-21T03:52:47;20.20;99.90
54272;DHT22;40184;53.362;5.216;2022-07-21T03:55:13;19.90;99.90
54272;DHT22;40184;53.362;5.216;2022-07-21T03:57:51;19.60;99.90
54272;DHT22;40184;53.362;5.216;2022-07-21T04:00:23;19.50;99.90
54272;DHT22;40184;53.362;5.216;2022-07-21T04:02:49;19.60;99.90
54272;DHT22;40184;53.362;5.216;2022-07-21T04:05:16;20.00;99.90
54272;DHT22;40184;53.362;5.216;2022-07-21T04:07:43;19.50;99.90
54272;DHT22;40184;53.362;5.216;2022-07-21T04:10:11;19.80;99.90
54272;DHT22;40184;53.362;5.216;2022-07-21T04:12:37;19.60;99.90
54272;DHT22;40184;53.362;5.216;2022-07-21T04:15:08;19.60;99.90
54272;DHT22;40184;53.362;5.216;2022-07-21T04:17:36;19.80;99.90
54272;DHT22;40184;53.362;5.216;2022-07-21T04:20:03;19.60;99.90
54272;DHT22;40184;53.362;5.216;2022-07-21T04:22:29;19.60;99.90
54272;DHT22;40184;53.362;5.216;2022-07-21T04:24:54;19.90;99.90
54272;DHT22;40184;53.362;5.216;2022-07-21T04:27:20;19.40;99.90
54272;DHT22;40184;53.362;5.216;2022-07-21T04:29:46;19.60;99.90
54272;DHT22;40184;53.362;5.216;2022-07-21T04:32:11;19.40;99.90
54272;DHT22;40184;53.362;5.216;2022-07-21T04:34:37;19.40;99.90
54272;DHT22;40184;53.362;5.216;2022-07-21T04:37:03;19.60;99.90
54272;DHT22;40184;53.362;5.216;2022-07-21T04:39:28;19.50;99.90
54272;DHT22;40184;53.362;5.216;2022-07-21T04:41:54;19.40;99.90
54272;DHT22;40184;53.362;5.216;2022-07-21T04:44:20;19.60;99.90
54272;DHT22;40184;53.362;5.216;2022-07-21T04:46:46;19.50;99.90
54272;DHT22;40184;53.362;5.216;2022-07-21T04:49:11;20.00;99.90
54272;DHT22;40184;53.362;5.216;2022-07-21T04:51:37;19.90;99.90
54272;DHT22;40184;53.362;5.216;2022-07-21T04:54:03;19.40;99.90
54272;DHT22;40184;53.362;5.216;2022-07-21T04:56:28;19.60;99.90
54272;DHT22;40184;53.362;5.216;2022-07-21T04:58:54;19.80;99.90
54272;DHT22;40184;53.362;5.216;2022-07-21T05:01:19;19.60;99.90
54272;DHT22;40184;53.362;5.216;2022-07-21T05:03:45;19.90;99.90
54272;DHT22;40184;53.362;5.216;2022-07-21T05:06:12;19.70;99.90
54272;DHT22;40184;53.362;5.216;2022-07-21T05:08:37;19.90;99.90
54272;DHT22;40184;53.362;5.216;2022-07-21T05:11:03;19.40;99.90
54272;DHT22;40184;53.362;5.216;2022-07-21T05:13:29;19.70;99.90
54272;DHT22;40184;53.362;5.216;2022-07-21T05:15:54;20.00;99.90
54272;DHT22;40184;53.362;5.216;2022-07-21T05:18:20;20.00;99.90
54272;DHT22;40184;53.362;5.216;2022-07-21T05:20:45;19.90;99.90
54272;DHT22;40184;53.362;5.216;2022-07-21T05:23:11;20.00;99.90
54272;DHT22;40184;53.362;5.216;2022-07-21T05:25:37;19.80;99.90
54272;DHT22;40184;53.362;5.216;2022-07-21T05:28:05;20.10;99.90
54272;DHT22;40184;53.362;5.216;2022-07-21T05:30:31;19.50;99.90
54272;DHT22;40184;53.362;5.216;2022-07-21T05:32:56;19.70;99.90
54272;DHT22;40184;53.362;5.216;2022-07-21T05:35:22;19.80;99.90
54272;DHT22;40184;53.362;5.216;2022-07-21T05:37:48;20.10;99.90
54272;DHT22;40184;53.362;5.216;2022-07-21T05:40:14;19.60;99.90
54272;DHT22;40184;53.362;5.216;2022-07-21T05:42:39;19.50;99.90
54272;DHT22;40184;53.362;5.216;2022-07-21T05:45:05;19.70;99.90
54272;DHT22;40184;53.362;5.216;2022-07-21T05:47:31;19.70;99.90
54272;DHT22;40184;53.362;5.216;2022-07-21T05:49:58;19.90;99.90
54272;DHT22;40184;53.362;5.216;2022-07-21T05:52:24;19.60;99.90
54272;DHT22;40184;53.362;5.216;2022-07-21T05:54:49;19.60;99.90
54272;DHT22;40184;53.362;5.216;2022-07-21T05:57:15;19.60;99.90
54272;DHT22;40184;53.362;5.216;2022-07-21T05:59:41;20.20;99.90
54272;DHT22;40184;53.362;5.216;2022-07-21T06:02:07;20.20;99.90
54272;DHT22;40184;53.362;5.216;2022-07-21T06:04:33;19.80;99.90
54272;DHT22;40184;53.362;5.216;2022-07-21T06:06:58;19.90;99.90
54272;DHT22;40184;53.362;5.216;2022-07-21T06:09:24;20.20;99.90
54272;DHT22;40184;53.362;5.216;2022-07-21T06:11:49;20.20;99.90
54272;DHT22;40184;53.362;5.216;2022-07-21T06:14:15;20.00;99.90
54272;DHT22;40184;53.362;5.216;2022-07-21T06:16:41;19.70;99.90
54272;DHT22;40184;53.362;5.216;2022-07-21T06:19:06;20.20;99.90
54272;DHT22;40184;53.362;5.216;2022-07-21T06:21:32;19.80;99.90
54272;DHT22;40184;53.362;5.216;2022-07-21T06:23:58;19.80;99.90
54272;DHT22;40184;53.362;5.216;2022-07-21T06:26:24;20.00;99.90
54272;DHT22;40184;53.362;5.216;2022-07-21T06:28:49;20.00;99.90
54272;DHT22;40184;53.362;5.216;2022-07-21T06:31:15;19.90;99.90
54272;DHT22;40184;53.362;5.216;2022-07-21T06:33:41;20.10;99.90
54272;DHT22;40184;53.362;5.216;2022-07-21T06:36:07;19.50;99.90
54272;DHT22;40184;53.362;5.216;2022-07-21T06:38:34;19.60;99.90
54272;DHT22;40184;53.362;5.216;2022-07-21T06:41:00;20.20;99.90
54272;DHT22;40184;53.362;5.216;2022-07-21T06:43:26;19.60;99.90
54272;DHT22;40184;53.362;5.216;2022-07-21T06:45:52;19.90;99.90
54272;DHT22;40184;53.362;5.216;2022-07-21T06:48:18;19.70;99.90
54272;DHT22;40184;53.362;5.216;2022-07-21T06:50:43;19.90;99.90
54272;DHT22;40184;53.362;5.216;2022-07-21T06:53:10;19.90;99.90
54272;DHT22;40184;53.362;5.216;2022-07-21T06:55:35;19.70;99.90
54272;DHT22;40184;53.362;5.216;2022-07-21T06:58:18;20.00;99.90
54272;DHT22;40184;53.362;5.216;2022-07-21T07:00:46;19.90;99.90
54272;DHT22;40184;53.362;5.216;2022-07-21T07:03:12;19.80;99.90
54272;DHT22;40184;53.362;5.216;2022-07-21T07:05:38;19.80;99.90
54272;DHT22;40184;53.362;5.216;2022-07-21T07:08:04;20.10;99.90
54272;DHT22;40184;53.362;5.216;2022-07-21T07:10:30;20.30;99.90
54272;DHT22;40184;53.362;5.216;2022-07-21T07:12:55;19.80;99.90
54272;DHT22;40184;53.362;5.216;2022-07-21T07:15:23;20.10;99.90
54272;DHT22;40184;53.362;5.216;2022-07-21T07:17:49;19.80;99.90
54272;DHT22;40184;53.362;5.216;2022-07-21T07:20:15;19.80;99.90
54272;DHT22;40184;53.362;5.216;2022-07-21T07:22:41;20.40;99.90
54272;DHT22;40184;53.362;5.216;2022-07-21T07:25:07;20.20;99.90
54272;DHT22;40184;53.362;5.216;2022-07-21T07:27:33;20.20;99.90
54272;DHT22;40184;53.362;5.216;2022-07-21T07:29:59;19.80;99.90
54272;DHT22;40184;53.362;5.216;2022-07-21T07:32:24;19.90;99.90
54272;DHT22;40184;53.362;5.216;2022-07-21T07:34:50;20.10;99.90
54272;DHT22;40184;53.362;5.216;2022-07-21T07:37:16;20.40;99.90
54272;DHT22;40184;53.362;5.216;2022-07-21T07:39:42;20.40;99.90
54272;DHT22;40184;53.362;5.216;2022-07-21T07:42:08;20.10;99.90
54272;DHT22;40184;53.362;5.216;2022-07-21T07:44:34;20.40;99.90
54272;DHT22;40184;53.362;5.216;2022-07-21T07:47:00;20.20;99.90
54272;DHT22;40184;53.362;5.216;2022-07-21T07:49:28;20.40;99.90
54272;DHT22;40184;53.362;5.216;2022-07-21T07:51:55;20.20;99.90
54272;DHT22;40184;53.362;5.216;2022-07-21T07:54:21;19.80;99.90
54272;DHT22;40184;53.362;5.216;2022-07-21T07:56:46;19.90;99.90
54272;DHT22;40184;53.362;5.216;2022-07-21T07:59:12;20.10;99.90
54272;DHT22;40184;53.362;5.216;2022-07-21T08:01:37;20.00;99.90
54272;DHT22;40184;53.362;5.216;2022-07-21T08:04:03;20.10;99.90
54272;DHT22;40184;53.362;5.216;2022-07-21T08:06:29;19.50;99.90
54272;DHT22;40184;53.362;5.216;2022-07-21T08:08:55;19.60;99.90
54272;DHT22;40184;53.362;5.216;2022-07-21T08:11:20;19.60;99.90
54272;DHT22;40184;53.362;5.216;2022-07-21T08:13:46;19.70;99.90
54272;DHT22;40184;53.362;5.216;2022-07-21T08:16:12;19.60;99.90
54272;DHT22;40184;53.362;5.216;2022-07-21T08:18:41;19.40;99.90
54272;DHT22;40184;53.362;5.216;2022-07-21T08:21:07;19.60;99.90
54272;DHT22;40184;53.362;5.216;2022-07-21T08:23:32;19.80;99.90
54272;DHT22;40184;53.362;5.216;2022-07-21T08:25:58;19.30;99.90
54272;DHT22;40184;53.362;5.216;2022-07-21T08:28:24;19.80;99.90
54272;DHT22;40184;53.362;5.216;2022-07-21T08:30:50;19.80;99.90
54272;DHT22;40184;53.362;5.216;2022-07-21T08:33:16;19.30;99.90
54272;DHT22;40184;53.362;5.216;2022-07-21T08:35:41;19.30;99.90
54272;DHT22;40184;53.362;5.216;2022-07-21T08:38:09;19.80;99.90
54272;DHT22;40184;53.362;5.216;2022-07-21T08:40:43;19.20;99.90
54272;DHT22;40184;53.362;5.216;2022-07-21T08:43:10;19.60;99.90
54272;DHT22;40184;53.362;5.216;2022-07-21T08:45:37;19.80;99.90
54272;DHT22;40184;53.362;5.216;2022-07-21T08:48:03;19.80;99.90
54272;DHT22;40184;53.362;5.216;2022-07-21T08:50:31;19.50;99.90
54272;DHT22;40184;53.362;5.216;2022-07-21T08:52:58;19.40;99.90
54272;DHT22;40184;53.362;5.216;2022-07-21T08:55:23;19.50;99.90
54272;DHT22;40184;53.362;5.216;2022-07-21T08:57:49;19.10;99.90
54272;DHT22;40184;53.362;5.216;2022-07-21T09:00:15;19.60;99.90
54272;DHT22;40184;53.362;5.216;2022-07-21T09:02:41;19.30;99.90
54272;DHT22;40184;53.362;5.216;2022-07-21T09:05:08;19.30;99.90
54272;DHT22;40184;53.362;5.216;2022-07-21T09:07:52;19.20;99.90
54272;DHT22;40184;53.362;5.216;2022-07-21T09:10:26;19.30;99.90
54272;DHT22;40184;53.362;5.216;2022-07-21T09:12:53;19.60;99.90
54272;DHT22;40184;53.362;5.216;2022-07-21T09:15:20;19.10;99.90
54272;DHT22;40184;53.362;5.216;2022-07-21T09:17:46;19.10;99.90
54272;DHT22;40184;53.362;5.216;2022-07-21T09:20:28;19.50;99.90
54272;DHT22;40184;53.362;5.216;2022-07-21T09:23:09;19.10;99.90
54272;DHT22;40184;53.362;5.216;2022-07-21T09:25:41;19.00;99.90
54272;DHT22;40184;53.362;5.216;2022-07-21T09:28:36;19.60;99.90
54272;DHT22;40184;53.362;5.216;2022-07-21T09:31:07;19.10;99.90
54272;DHT22;40184;53.362;5.216;2022-07-21T09:33:39;19.30;99.90
54272;DHT22;40184;53.362;5.216;2022-07-21T09:38:52;19.40;99.90
54272;DHT22;40184;53.362;5.216;2022-07-21T09:41:25;19.30;99.90
54272;DHT22;40184;53.362;5.216;2022-07-21T09:43:56;19.50;99.90
54272;DHT22;40184;53.362;5.216;2022-07-21T09:46:28;19.50;99.90
54272;DHT22;40184;53.362;5.216;2022-07-21T09:48:57;19.10;99.90
54272;DHT22;40184;53.362;5.216;2022-07-21T09:51:32;19.10;99.90
54272;DHT22;40184;53.362;5.216;2022-07-21T09:54:08;19.50;99.90
54272;DHT22;40184;53.362;5.216;2022-07-21T09:56:38;19.30;99.90
54272;DHT22;40184;53.362;5.216;2022-07-21T09:59:06;19.60;99.90
54272;DHT22;40184;53.362;5.216;2022-07-21T10:01:32;19.70;99.90
54272;DHT22;40184;53.362;5.216;2022-07-21T10:03:59;19.20;99.90
54272;DHT22;40184;53.362;5.216;2022-07-21T10:06:39;19.20;99.90
54272;DHT22;40184;53.362;5.216;2022-07-21T10:09:07;19.50;99.90
54272;DHT22;40184;53.362;5.216;2022-07-21T10:11:33;19.50;99.90
54272;DHT22;40184;53.362;5.216;2022-07-21T10:13:59;19.20;99.90
54272;DHT22;40184;53.362;5.216;2022-07-21T10:16:25;19.20;99.90
54272;DHT22;40184;53.362;5.216;2022-07-21T10:18:56;19.20;99.90
54272;DHT22;40184;53.362;5.216;2022-07-21T10:21:30;19.40;99.90
54272;DHT22;40184;53.362;5.216;2022-07-21T10:23:57;19.50;99.90
54272;DHT22;40184;53.362;5.216;2022-07-21T10:26:24;19.70;99.90
54272;DHT22;40184;53.362;5.216;2022-07-21T10:28:49;19.30;99.90
54272;DHT22;40184;53.362;5.216;2022-07-21T10:31:20;19.20;99.90
54272;DHT22;40184;53.362;5.216;2022-07-21T10:41:42;19.70;99.90
54272;DHT22;40184;53.362;5.216;2022-07-21T10:49:53;19.30;99.90
54272;DHT22;40184;53.362;5.216;2022-07-21T10:55:17;19.70;99.90
54272;DHT22;40184;53.362;5.216;2022-07-21T10:58:16;19.40;99.90
54272;DHT22;40184;53.362;5.216;2022-07-21T11:00:50;19.50;99.90
54272;DHT22;40184;53.362;5.216;2022-07-21T11:03:20;19.70;99.90
54272;DHT22;40184;53.362;5.216;2022-07-21T11:08:32;19.80;99.90
54272;DHT22;40184;53.362;5.216;2022-07-21T11:14:06;19.70;99.90
54272;DHT22;40184;53.362;5.216;2022-07-21T11:19:33;19.90;99.90
54272;DHT22;40184;53.362;5.216;2022-07-21T11:22:14;19.80;99.90
54272;DHT22;40184;53.362;5.216;2022-07-21T11:24:46;19.80;99.90
54272;DHT22;40184;53.362;5.216;2022-07-21T11:27:18;20.10;99.90
54272;DHT22;40184;53.362;5.216;2022-07-21T11:29:46;19.70;99.90
54272;DHT22;40184;53.362;5.216;2022-07-21T11:32:13;20.10;99.90
54272;DHT22;40184;53.362;5.216;2022-07-21T11:37:32;20.20;99.90
54272;DHT22;40184;53.362;5.216;2022-07-21T11:39:58;20.10;99.90
54272;DHT22;40184;53.362;5.216;2022-07-21T11:42:25;19.70;99.90
54272;DHT22;40184;53.362;5.216;2022-07-21T11:44:51;20.10;99.90
54272;DHT22;40184;53.362;5.216;2022-07-21T11:47:17;19.70;99.90
54272;DHT22;40184;53.362;5.216;2022-07-21T11:49:43;19.80;99.90
54272;DHT22;40184;53.362;5.216;2022-07-21T11:52:14;19.80;99.90
54272;DHT22;40184;53.362;5.216;2022-07-21T11:54:49;19.50;99.90
54272;DHT22;40184;53.362;5.216;2022-07-21T11:57:17;19.90;99.90
54272;DHT22;40184;53.362;5.216;2022-07-21T11:59:44;19.60;99.90
54272;DHT22;40184;53.362;5.216;2022-07-21T12:02:12;19.70;99.90
54272;DHT22;40184;53.362;5.216;2022-07-21T12:07:33;19.80;99.90
54272;DHT22;40184;53.362;5.216;2022-07-21T12:09:58;19.40;99.90
54272;DHT22;40184;53.362;5.216;2022-07-21T12:14:58;19.50;99.90
54272;DHT22;40184;53.362;5.216;2022-07-21T12:17:44;19.80;99.90
54272;DHT22;40184;53.362;5.216;2022-07-21T12:20:11;19.60;99.90
54272;DHT22;40184;53.362;5.216;2022-07-21T12:22:39;19.30;99.90
54272;DHT22;40184;53.362;5.216;2022-07-21T12:25:09;19.30;99.90
54272;DHT22;40184;53.362;5.216;2022-07-21T12:27:36;19.50;99.90
54272;DHT22;40184;53.362;5.216;2022-07-21T12:30:06;19.60;99.90
54272;DHT22;40184;53.362;5.216;2022-07-21T12:32:47;19.40;99.90
54272;DHT22;40184;53.362;5.216;2022-07-21T12:35:22;19.80;99.90
54272;DHT22;40184;53.362;5.216;2022-07-21T12:38:08;19.30;99.90
54272;DHT22;40184;53.362;5.216;2022-07-21T12:40:37;19.70;99.90
54272;DHT22;40184;53.362;5.216;2022-07-21T12:43:23;19.70;99.90
54272;DHT22;40184;53.362;5.216;2022-07-21T12:45:55;19.40;99.90
54272;DHT22;40184;53.362;5.216;2022-07-21T12:48:23;19.30;99.90
54272;DHT22;40184;53.362;5.216;2022-07-21T12:53:24;19.50;99.90
54272;DHT22;40184;53.362;5.216;2022-07-21T12:55:49;19.10;99.90
54272;DHT22;40184;53.362;5.216;2022-07-21T12:58:15;19.60;99.90
54272;DHT22;40184;53.362;5.216;2022-07-21T13:00:41;18.80;99.90
54272;DHT22;40184;53.362;5.216;2022-07-21T13:03:07;18.60;99.90
54272;DHT22;40184;53.362;5.216;2022-07-21T13:05:32;18.90;99.90
54272;DHT22;40184;53.362;5.216;2022-07-21T13:07:58;18.80;99.90
54272;DHT22;40184;53.362;5.216;2022-07-21T13:10:24;18.60;99.90
54272;DHT22;40184;53.362;5.216;2022-07-21T13:12:49;18.60;99.90
54272;DHT22;40184;53.362;5.216;2022-07-21T13:15:16;18.60;99.90
54272;DHT22;40184;53.362;5.216;2022-07-21T13:17:42;18.10;99.90
54272;DHT22;40184;53.362;5.216;2022-07-21T13:20:08;18.20;99.90
54272;DHT22;40184;53.362;5.216;2022-07-21T13:22:34;18.40;99.90
54272;DHT22;40184;53.362;5.216;2022-07-21T13:25:00;18.10;99.90
54272;DHT22;40184;53.362;5.216;2022-07-21T13:27:26;17.80;99.90
54272;DHT22;40184;53.362;5.216;2022-07-21T13:29:51;17.90;99.90
54272;DHT22;40184;53.362;5.216;2022-07-21T13:32:17;18.40;99.90
54272;DHT22;40184;53.362;5.216;2022-07-21T13:34:43;17.80;99.90
54272;DHT22;40184;53.362;5.216;2022-07-21T13:37:08;17.90;99.90
54272;DHT22;40184;53.362;5.216;2022-07-21T13:39:38;17.70;99.90
54272;DHT22;40184;53.362;5.216;2022-07-21T13:42:05;18.00;99.90
54272;DHT22;40184;53.362;5.216;2022-07-21T13:44:31;17.80;99.90
54272;DHT22;40184;53.362;5.216;2022-07-21T13:46:57;18.10;99.90
54272;DHT22;40184;53.362;5.216;2022-07-21T13:49:23;17.70;99.90
54272;DHT22;40184;53.362;5.216;2022-07-21T13:51:49;17.40;99.90
54272;DHT22;40184;53.362;5.216;2022-07-21T13:54:15;17.90;99.90
54272;DHT22;40184;53.362;5.216;2022-07-21T13:56:40;17.60;99.90
54272;DHT22;40184;53.362;5.216;2022-07-21T13:59:06;17.40;99.90
54272;DHT22;40184;53.362;5.216;2022-07-21T14:01:32;18.00;99.90
54272;DHT22;40184;53.362;5.216;2022-07-21T14:03:58;17.50;99.90
54272;DHT22;40184;53.362;5.216;2022-07-21T14:06:24;17.70;99.90
54272;DHT22;40184;53.362;5.216;2022-07-21T14:08:50;17.40;99.90
54272;DHT22;40184;53.362;5.216;2022-07-21T14:11:16;17.90;99.90
54272;DHT22;40184;53.362;5.216;2022-07-21T14:13:42;17.40;99.90
54272;DHT22;40184;53.362;5.216;2022-07-21T14:16:08;17.30;99.90
54272;DHT22;40184;53.362;5.216;2022-07-21T14:18:34;17.70;99.90
54272;DHT22;40184;53.362;5.216;2022-07-21T14:21:00;17.50;99.90
54272;DHT22;40184;53.362;5.216;2022-07-21T14:23:26;17.20;99.90
54272;DHT22;40184;53.362;5.216;2022-07-21T14:25:52;17.40;99.90
54272;DHT22;40184;53.362;5.216;2022-07-21T14:28:19;17.20;99.90
54272;DHT22;40184;53.362;5.216;2022-07-21T14:30:45;17.10;99.90
54272;DHT22;40184;53.362;5.216;2022-07-21T14:33:11;17.60;99.90
54272;DHT22;40184;53.362;5.216;2022-07-21T14:35:37;17.10;99.90
54272;DHT22;40184;53.362;5.216;2022-07-21T14:38:04;17.00;99.90
54272;DHT22;40184;53.362;5.216;2022-07-21T14:40:29;17.10;99.90
54272;DHT22;40184;53.362;5.216;2022-07-21T14:42:55;17.30;99.90
54272;DHT22;40184;53.362;5.216;2022-07-21T14:45:22;17.60;99.90
54272;DHT22;40184;53.362;5.216;2022-07-21T14:47:51;17.30;99.90
54272;DHT22;40184;53.362;5.216;2022-07-21T14:50:17;17.50;99.90
54272;DHT22;40184;53.362;5.216;2022-07-21T14:52:43;17.00;99.90
54272;DHT22;40184;53.362;5.216;2022-07-21T14:55:09;17.50;99.90
54272;DHT22;40184;53.362;5.216;2022-07-21T14:57:35;17.50;99.90
54272;DHT22;40184;53.362;5.216;2022-07-21T15:00:03;17.00;99.90
54272;DHT22;40184;53.362;5.216;2022-07-21T15:02:29;17.10;99.90
54272;DHT22;40184;53.362;5.216;2022-07-21T15:04:54;16.90;99.90
54272;DHT22;40184;53.362;5.216;2022-07-21T15:07:20;17.20;99.90
54272;DHT22;40184;53.362;5.216;2022-07-21T15:09:46;17.00;99.90
54272;DHT22;40184;53.362;5.216;2022-07-21T15:12:11;17.10;99.90
54272;DHT22;40184;53.362;5.216;2022-07-21T15:14:38;17.40;99.90
54272;DHT22;40184;53.362;5.216;2022-07-21T15:17:04;16.90;99.90
54272;DHT22;40184;53.362;5.216;2022-07-21T15:19:29;16.80;99.90
54272;DHT22;40184;53.362;5.216;2022-07-21T15:21:55;16.70;99.90
54272;DHT22;40184;53.362;5.216;2022-07-21T15:24:22;17.30;99.90
54272;DHT22;40184;53.362;5.216;2022-07-21T15:26:48;17.00;99.90
54272;DHT22;40184;53.362;5.216;2022-07-21T15:29:14;17.40;99.90
54272;DHT22;40184;53.362;5.216;2022-07-21T15:31:39;17.30;99.90
54272;DHT22;40184;53.362;5.216;2022-07-21T15:34:05;16.90;99.90
54272;DHT22;40184;53.362;5.216;2022-07-21T15:36:31;17.00;99.90
54272;DHT22;40184;53.362;5.216;2022-07-21T15:38:57;17.10;99.90
54272;DHT22;40184;53.362;5.216;2022-07-21T15:41:24;17.30;99.90
54272;DHT22;40184;53.362;5.216;2022-07-21T15:43:49;17.20;99.90
54272;DHT22;40184;53.362;5.216;2022-07-21T15:46:15;17.20;99.90
54272;DHT22;40184;53.362;5.216;2022-07-21T15:48:41;17.00;99.90
54272;DHT22;40184;53.362;5.216;2022-07-21T15:51:07;16.70;99.90
54272;DHT22;40184;53.362;5.216;2022-07-21T15:53:33;17.10;99.90
54272;DHT22;40184;53.362;5.216;2022-07-21T15:56:02;16.80;99.90
54272;DHT22;40184;53.362;5.216;2022-07-21T15:58:28;16.70;99.90
54272;DHT22;40184;53.362;5.216;2022-07-21T16:00:53;17.10;99.90
54272;DHT22;40184;53.362;5.216;2022-07-21T16:03:19;17.10;99.90
54272;DHT22;40184;53.362;5.216;2022-07-21T16:05:44;17.20;99.90
54272;DHT22;40184;53.362;5.216;2022-07-21T16:08:10;17.30;99.90
54272;DHT22;40184;53.362;5.216;2022-07-21T16:10:36;17.10;99.90